createdAt,value
2018-11-27T00:02:05.198Z,13.10
2018-11-27T00:04:32.520Z,13.30
2018-11-27T00:06:59.944Z,13.50
2018-11-27T00:09:27.440Z,14.10
2018-11-27T00:11:54.975Z,13.50
2018-11-27T00:14:22.367Z,14.30
2018-11-27T00:16:49.814Z,13.47
2018-11-27T00:19:17.221Z,13.43
2018-11-27T00:21:44.651Z,14.00
2018-11-27T00:24:12.096Z,14.00
2018-11-27T00:26:39.445Z,13.83
2018-11-27T00:29:07.505Z,13.80
2018-11-27T00:31:34.976Z,14.20
2018-11-27T00:34:02.402Z,14.30
2018-11-27T00:36:30.526Z,14.90
2018-11-27T00:38:57.885Z,13.43
2018-11-27T00:41:25.185Z,13.63
2018-11-27T00:43:52.523Z,13.23
2018-11-27T00:46:19.895Z,13.93
2018-11-27T00:48:47.297Z,13.27
2018-11-27T00:51:14.680Z,13.17
2018-11-27T00:53:42.043Z,14.33
2018-11-27T00:56:09.517Z,14.37
2018-11-27T00:58:36.891Z,13.67
2018-11-27T01:01:04.481Z,14.53
2018-11-27T01:03:31.917Z,15.77
2018-11-27T01:05:59.219Z,14.90
2018-11-27T01:08:26.599Z,15.43
2018-11-27T01:10:53.927Z,15.90
2018-11-27T01:13:21.252Z,16.07
2018-11-27T01:15:48.717Z,15.77
2018-11-27T01:18:16.124Z,16.73
2018-11-27T01:20:44.197Z,15.93
2018-11-27T01:23:11.550Z,17.10
2018-11-27T01:25:38.991Z,15.53
2018-11-27T01:28:07.013Z,15.30
2018-11-27T01:30:34.450Z,15.77
2018-11-27T01:33:01.815Z,15.77
2018-11-27T01:35:29.356Z,15.67
2018-11-27T01:37:56.778Z,15.60
2018-11-27T01:40:26.023Z,15.90
2018-11-27T01:42:54.234Z,15.70
2018-11-27T01:45:22.372Z,15.37
2018-11-27T01:47:50.167Z,15.67
2018-11-27T01:50:18.549Z,16.40
2018-11-27T01:52:46.024Z,15.53
2018-11-27T01:55:16.532Z,16.03
2018-11-27T01:57:43.849Z,16.27
2018-11-27T02:00:21.950Z,16.33
2018-11-27T02:02:49.584Z,16.53
2018-11-27T02:05:17.309Z,16.03
2018-11-27T02:07:45.663Z,17.43
2018-11-27T02:10:13.013Z,17.37
2018-11-27T02:12:41.662Z,16.63
2018-11-27T02:15:28.274Z,17.37
2018-11-27T02:17:55.959Z,18.13
2018-11-27T02:20:23.383Z,16.93
2018-11-27T02:22:50.805Z,17.13
2018-11-27T02:25:21.241Z,19.23
2018-11-27T02:27:48.879Z,18.60
2018-11-27T02:30:18.300Z,18.70
2018-11-27T02:32:45.666Z,18.57
2018-11-27T02:35:17.637Z,18.40
2018-11-27T02:37:46.792Z,19.27
2018-11-27T02:40:15.942Z,19.30
2018-11-27T02:42:43.441Z,18.90
2018-11-27T02:45:13.841Z,18.47
2018-11-27T02:47:41.719Z,18.23
2018-11-27T02:50:12.910Z,17.77
2018-11-27T02:52:40.350Z,18.90
2018-11-27T02:55:24.365Z,19.43
2018-11-27T02:57:51.865Z,20.17
2018-11-27T03:00:20.765Z,18.37
2018-11-27T03:02:48.803Z,19.47
2018-11-27T03:05:19.901Z,20.83
2018-11-27T03:07:47.248Z,19.60
2018-11-27T03:10:15.162Z,19.53
2018-11-27T03:12:42.680Z,21.10
2018-11-27T03:15:12.792Z,19.90
2018-11-27T03:17:40.177Z,20.40
2018-11-27T03:20:09.089Z,21.27
2018-11-27T03:22:36.499Z,20.50
2018-11-27T03:25:04.617Z,20.53
2018-11-27T03:27:31.979Z,20.30
2018-11-27T03:29:59.404Z,19.67
2018-11-27T03:32:26.771Z,20.00
2018-11-27T03:34:54.134Z,21.23
2018-11-27T03:37:21.495Z,20.20
2018-11-27T03:39:49.205Z,20.27
2018-11-27T03:42:16.544Z,19.47
2018-11-27T03:44:44.020Z,19.33
2018-11-27T03:47:11.432Z,20.10
2018-11-27T03:49:38.860Z,21.10
2018-11-27T03:52:06.186Z,19.67
2018-11-27T03:54:33.559Z,21.07
2018-11-27T03:57:01.034Z,20.53
2018-11-27T03:59:28.372Z,19.63
2018-11-27T04:01:58.445Z,22.10
2018-11-27T04:04:25.899Z,20.30
2018-11-27T04:06:53.240Z,19.87
2018-11-27T04:09:20.567Z,19.83
2018-11-27T04:11:48.024Z,20.83
2018-11-27T04:14:15.326Z,20.87
2018-11-27T04:16:42.685Z,20.70
2018-11-27T04:19:10.013Z,22.93
2018-11-27T04:21:37.355Z,23.70
2018-11-27T04:24:05.711Z,23.10
2018-11-27T04:26:33.122Z,24.70
2018-11-27T04:29:00.519Z,25.43
2018-11-27T04:31:27.822Z,24.63
2018-11-27T04:33:55.249Z,24.97
2018-11-27T04:36:22.622Z,25.00
2018-11-27T04:38:50.023Z,22.47
2018-11-27T04:41:17.415Z,22.60
2018-11-27T04:43:45.023Z,23.47
2018-11-27T04:46:12.349Z,22.60
2018-11-27T04:48:39.771Z,23.77
2018-11-27T04:51:07.112Z,25.13
2018-11-27T04:53:34.545Z,24.03
2018-11-27T04:56:01.890Z,25.80
2018-11-27T04:58:29.413Z,25.10
2018-11-27T05:00:56.940Z,26.60
2018-11-27T05:03:24.299Z,26.00
2018-11-27T05:05:51.674Z,26.90
2018-11-27T05:08:19.035Z,26.33
2018-11-27T05:10:46.464Z,26.83
2018-11-27T05:13:13.916Z,28.00
2018-11-27T05:15:41.340Z,25.93
2018-11-27T05:18:08.788Z,26.20
2018-11-27T05:20:36.164Z,25.00
2018-11-27T05:23:03.984Z,24.27
2018-11-27T05:25:31.474Z,25.77
2018-11-27T05:27:59.491Z,24.03
2018-11-27T05:30:28.463Z,26.53
2018-11-27T05:32:55.421Z,27.40
2018-11-27T05:35:27.913Z,28.27
2018-11-27T05:37:56.202Z,26.40
2018-11-27T05:40:24.470Z,25.33
2018-11-27T05:42:54.153Z,26.83
2018-11-27T05:45:22.427Z,25.63
2018-11-27T05:47:49.764Z,26.67
2018-11-27T05:50:17.992Z,26.77
2018-11-27T05:52:45.425Z,24.40
2018-11-27T05:55:13.332Z,26.93
2018-11-27T05:57:41.567Z,26.37
2018-11-27T06:00:13.954Z,26.73
2018-11-27T06:02:41.392Z,27.90
2018-11-27T06:05:13.417Z,27.43
2018-11-27T06:07:40.724Z,26.63
2018-11-27T06:10:09.538Z,27.20
2018-11-27T06:12:36.865Z,27.73
2018-11-27T06:15:05.318Z,27.43
2018-11-27T06:17:32.693Z,27.87
2018-11-27T06:20:00.151Z,26.73
2018-11-27T06:22:27.655Z,26.93
2018-11-27T06:24:55.065Z,27.40
2018-11-27T06:27:22.411Z,26.03
2018-11-27T06:29:49.833Z,27.37
2018-11-27T06:32:21.363Z,27.87
2018-11-27T06:34:44.655Z,26.10
2018-11-27T06:37:12.002Z,26.10
2018-11-27T06:39:39.449Z,28.60
2018-11-27T06:42:06.924Z,26.07
2018-11-27T06:44:34.251Z,26.77
2018-11-27T06:47:01.589Z,26.93
2018-11-27T06:49:28.933Z,27.77
2018-11-27T06:51:56.310Z,28.07
2018-11-27T06:54:23.730Z,26.97
2018-11-27T06:56:51.207Z,26.90
2018-11-27T06:59:18.561Z,28.63
2018-11-27T07:01:45.893Z,27.83
2018-11-27T07:04:13.310Z,28.03
2018-11-27T07:06:40.828Z,27.20
2018-11-27T07:09:09.270Z,26.00
2018-11-27T07:11:36.878Z,26.40
2018-11-27T07:14:04.680Z,27.23
2018-11-27T07:16:32.227Z,26.07
2018-11-27T07:18:59.612Z,27.47
2018-11-27T07:21:27.115Z,26.13
2018-11-27T07:23:54.426Z,25.07
2018-11-27T07:26:21.790Z,26.43
2018-11-27T07:28:49.088Z,24.57
2018-11-27T07:31:16.556Z,24.53
2018-11-27T07:33:43.954Z,24.07
2018-11-27T07:36:11.318Z,23.47
2018-11-27T07:38:38.710Z,22.83
2018-11-27T07:41:06.074Z,22.97
2018-11-27T07:43:33.540Z,23.70
2018-11-27T07:46:00.998Z,23.60
2018-11-27T07:48:28.366Z,24.57
2018-11-27T07:50:55.736Z,24.97
2018-11-27T07:53:23.191Z,24.97
2018-11-27T07:55:50.556Z,24.50
2018-11-27T07:58:17.874Z,21.53
2018-11-27T08:00:45.252Z,22.00
2018-11-27T08:03:12.616Z,22.03
2018-11-27T08:05:40.896Z,21.50
2018-11-27T08:08:12.641Z,21.57
2018-11-27T08:10:40.491Z,21.13
2018-11-27T08:13:08.519Z,22.33
2018-11-27T08:15:35.975Z,21.30
2018-11-27T08:18:03.343Z,22.17
2018-11-27T08:20:31.858Z,23.23
2018-11-27T08:22:59.353Z,22.13
2018-11-27T08:25:26.777Z,20.20
2018-11-27T08:27:54.155Z,20.50
2018-11-27T08:30:22.180Z,21.07
2018-11-27T08:32:49.984Z,22.87
2018-11-27T08:35:23.601Z,21.63
2018-11-27T08:37:52.044Z,22.30
2018-11-27T08:40:20.604Z,22.03
2018-11-27T08:42:47.983Z,21.50
2018-11-27T08:45:18.202Z,21.77
2018-11-27T08:47:46.497Z,21.23
2018-11-27T08:50:16.941Z,20.47
2018-11-27T08:52:52.927Z,20.80
2018-11-27T08:55:51.452Z,20.87
2018-11-27T08:58:20.187Z,20.23
2018-11-27T09:00:47.744Z,20.67
2018-11-27T09:03:15.194Z,22.90
2018-11-27T09:05:42.707Z,21.40
2018-11-27T09:08:10.060Z,20.93
2018-11-27T09:10:37.365Z,21.23
2018-11-27T09:13:05.972Z,22.17
2018-11-27T09:15:33.361Z,21.20
2018-11-27T09:18:18.527Z,21.47
2018-11-27T09:20:45.904Z,21.10
2018-11-27T09:23:13.273Z,21.43
2018-11-27T09:25:40.635Z,22.53
2018-11-27T09:28:07.939Z,22.07
2018-11-27T09:30:35.347Z,22.20
2018-11-27T09:33:02.768Z,20.23
2018-11-27T09:35:30.249Z,20.40
2018-11-27T09:37:57.823Z,20.07
2018-11-27T09:40:25.225Z,20.47
2018-11-27T09:42:52.681Z,19.90
2018-11-27T09:45:24.155Z,21.23
2018-11-27T09:47:53.986Z,20.93
2018-11-27T09:50:21.321Z,20.47
2018-11-27T09:52:48.882Z,20.43
2018-11-27T09:55:17.724Z,20.47
2018-11-27T09:57:45.146Z,20.33
2018-11-27T10:00:24.922Z,19.83
2018-11-27T10:02:53.685Z,20.50
2018-11-27T10:05:21.966Z,20.03
2018-11-27T10:07:49.364Z,19.53
2018-11-27T10:10:18.162Z,18.53
2018-11-27T10:12:45.529Z,20.63
2018-11-27T10:15:15.998Z,19.67
2018-11-27T10:17:44.069Z,19.23
2018-11-27T10:20:13.197Z,18.80
2018-11-27T10:22:41.306Z,25.60
2018-11-27T10:25:09.939Z,20.03
2018-11-27T10:27:37.325Z,33.93
2018-11-27T10:30:09.276Z,22.23
2018-11-27T10:32:36.787Z,19.57
2018-11-27T10:35:04.677Z,18.67
2018-11-27T10:37:32.062Z,17.80
2018-11-27T10:40:00.004Z,18.13
2018-11-27T10:42:30.078Z,18.03
2018-11-27T10:44:54.793Z,17.40
2018-11-27T10:47:22.240Z,18.87
2018-11-27T10:49:50.205Z,17.60
2018-11-27T10:52:17.564Z,18.53
2018-11-27T10:54:44.920Z,17.70
2018-11-27T10:57:12.377Z,17.43
2018-11-27T10:59:39.942Z,17.77
2018-11-27T11:02:12.969Z,17.20
2018-11-27T11:04:40.396Z,18.70
2018-11-27T11:07:07.779Z,16.80
2018-11-27T11:09:35.196Z,18.30
2018-11-27T11:12:02.524Z,17.80
2018-11-27T11:14:29.887Z,18.63
2018-11-27T11:16:57.223Z,17.77
2018-11-27T11:19:24.664Z,17.03
2018-11-27T11:21:51.999Z,17.50
2018-11-27T11:24:19.424Z,16.83
2018-11-27T11:26:46.770Z,17.40
2018-11-27T11:29:14.180Z,16.30
2018-11-27T11:31:41.608Z,16.50
2018-11-27T11:34:08.966Z,17.97
2018-11-27T11:36:36.282Z,17.20
2018-11-27T11:39:07.339Z,16.87
2018-11-27T11:41:34.729Z,16.70
2018-11-27T11:44:02.198Z,16.67
2018-11-27T11:46:29.554Z,17.60
2018-11-27T11:49:01.783Z,18.37
2018-11-27T11:51:24.432Z,16.50
2018-11-27T11:53:51.961Z,15.90
2018-11-27T11:56:19.365Z,17.00
2018-11-27T11:58:46.743Z,15.40
2018-11-27T12:01:14.116Z,15.43
2018-11-27T12:03:42.521Z,15.93
2018-11-27T12:06:10.607Z,16.40
2018-11-27T12:08:38.751Z,15.03
2018-11-27T12:11:06.097Z,16.07
2018-11-27T12:13:33.527Z,15.53
2018-11-27T12:16:01.411Z,15.93
2018-11-27T12:18:28.789Z,16.30
2018-11-27T12:20:57.280Z,15.50
2018-11-27T12:23:24.628Z,15.80
2018-11-27T12:25:51.998Z,16.53
2018-11-27T12:28:19.406Z,17.03
2018-11-27T12:30:46.848Z,15.70
2018-11-27T12:33:14.241Z,15.80
2018-11-27T12:35:41.629Z,15.60
2018-11-27T12:38:09.219Z,15.83
2018-11-27T12:40:36.690Z,16.00
2018-11-27T12:43:04.407Z,16.27
2018-11-27T12:45:32.779Z,16.93
2018-11-27T12:48:01.620Z,16.30
2018-11-27T12:50:39.700Z,16.67
2018-11-27T12:53:09.346Z,16.70
2018-11-27T12:55:38.259Z,17.07
2018-11-27T12:58:06.961Z,16.67
2018-11-27T13:00:34.832Z,16.27
2018-11-27T13:03:02.268Z,16.60
2018-11-27T13:05:42.000Z,17.37
2018-11-27T13:08:12.031Z,17.20
2018-11-27T13:10:39.364Z,17.07
2018-11-27T13:13:06.818Z,16.73
2018-11-27T13:15:35.545Z,16.60
2018-11-27T13:18:03.085Z,17.13
2018-11-27T13:20:30.459Z,18.17
2018-11-27T13:22:57.835Z,17.13
2018-11-27T13:25:25.234Z,16.67
2018-11-27T13:27:54.120Z,17.00
2018-11-27T13:30:28.225Z,17.03
2018-11-27T13:32:58.237Z,18.30
2018-11-27T13:35:25.638Z,17.70
2018-11-27T13:37:53.067Z,17.40
2018-11-27T13:40:20.453Z,16.87
2018-11-27T13:42:47.908Z,18.67
2018-11-27T13:45:15.773Z,14.47
2018-11-27T13:47:43.695Z,14.20
2018-11-27T13:50:13.049Z,15.50
2018-11-27T13:52:40.398Z,14.07
2018-11-27T13:55:10.940Z,14.17
2018-11-27T13:57:38.287Z,13.23
2018-11-27T14:00:08.250Z,13.23
2018-11-27T14:02:35.589Z,12.83
2018-11-27T14:05:02.955Z,12.20
2018-11-27T14:07:30.377Z,11.50
2018-11-27T14:09:57.761Z,12.93
2018-11-27T14:12:25.185Z,13.67
2018-11-27T14:14:52.563Z,12.10
2018-11-27T14:17:20.066Z,12.03
2018-11-27T14:19:47.461Z,13.03
2018-11-27T14:22:15.032Z,12.63
2018-11-27T14:24:42.441Z,13.10
2018-11-27T14:27:09.872Z,12.13
2018-11-27T14:29:37.230Z,13.23
2018-11-27T14:32:10.859Z,12.43
2018-11-27T14:34:38.294Z,12.17
2018-11-27T14:37:05.757Z,13.20
2018-11-27T14:39:33.290Z,13.60
2018-11-27T14:42:00.646Z,13.87
2018-11-27T14:44:28.204Z,13.83
2018-11-27T14:46:55.680Z,13.07
2018-11-27T14:49:23.077Z,11.60
2018-11-27T14:51:50.607Z,10.90
2018-11-27T14:54:17.956Z,11.40
2018-11-27T14:56:45.506Z,11.37
2018-11-27T14:59:12.893Z,11.30
2018-11-27T15:01:40.245Z,10.57
2018-11-27T15:04:07.744Z,11.03
2018-11-27T15:06:35.199Z,11.10
2018-11-27T15:09:03.635Z,10.93
2018-11-27T15:11:30.914Z,10.50
2018-11-27T15:13:58.489Z,11.43
2018-11-27T15:16:25.935Z,12.00
2018-11-27T15:18:53.397Z,11.17
2018-11-27T15:21:20.733Z,11.30
2018-11-27T15:23:48.083Z,33.60
2018-11-27T15:26:15.462Z,31.83
2018-11-27T15:28:43.022Z,31.50
2018-11-27T15:31:10.456Z,17.40
2018-11-27T15:33:37.904Z,13.07
2018-11-27T15:36:05.736Z,12.60
2018-11-27T15:38:33.167Z,15.47
2018-11-27T15:41:00.534Z,19.17
2018-11-27T15:43:27.920Z,23.03
2018-11-27T15:45:55.410Z,22.57
2018-11-27T15:48:22.905Z,24.77
2018-11-27T15:50:50.266Z,21.30
2018-11-27T15:53:17.660Z,17.97
2018-11-27T15:55:45.050Z,15.00
2018-11-27T15:58:13.582Z,15.07
2018-11-27T16:00:42.130Z,14.93
2018-11-27T16:03:09.486Z,13.10
2018-11-27T16:05:37.596Z,14.23
2018-11-27T16:08:06.337Z,14.37
2018-11-27T16:10:33.808Z,14.30
2018-11-27T16:13:01.253Z,15.00
2018-11-27T16:15:28.703Z,14.17
2018-11-27T16:17:56.027Z,13.33
2018-11-27T16:20:23.427Z,14.80
2018-11-27T16:22:51.825Z,14.73
2018-11-27T16:25:20.544Z,14.77
2018-11-27T16:27:47.976Z,13.83
2018-11-27T16:30:18.791Z,13.97
2018-11-27T16:32:46.227Z,14.70
2018-11-27T16:35:14.092Z,14.47
2018-11-27T16:37:42.366Z,14.40
2018-11-27T16:40:13.142Z,17.43
2018-11-27T16:42:43.132Z,16.43
2018-11-27T16:45:16.844Z,17.50
2018-11-27T16:47:44.640Z,18.13
2018-11-27T16:50:13.921Z,18.77
2018-11-27T16:52:41.344Z,23.77
2018-11-27T16:55:12.839Z,21.87
2018-11-27T16:57:40.531Z,25.67
2018-11-27T17:00:20.374Z,21.10
2018-11-27T17:02:48.736Z,24.87
2018-11-27T17:05:16.198Z,19.30
2018-11-27T17:07:43.537Z,18.27
2018-11-27T17:10:13.219Z,22.90
2018-11-27T17:12:40.833Z,29.27
2018-11-27T17:15:12.719Z,27.67
2018-11-27T17:17:40.061Z,24.50
2018-11-27T17:20:12.151Z,20.17
2018-11-27T17:22:39.575Z,19.90
2018-11-27T17:25:06.971Z,17.67
2018-11-27T17:27:34.407Z,17.60
2018-11-27T17:30:01.784Z,16.63
2018-11-27T17:32:29.155Z,17.67
2018-11-27T17:34:56.590Z,16.77
2018-11-27T17:37:23.968Z,17.77
2018-11-27T17:39:51.354Z,16.33
2018-11-27T17:42:18.726Z,15.77
2018-11-27T17:44:46.197Z,16.03
2018-11-27T17:47:13.672Z,16.70
2018-11-27T17:49:41.306Z,16.73
2018-11-27T17:52:08.658Z,17.27
2018-11-27T17:54:36.171Z,16.17
2018-11-27T17:57:03.510Z,15.73
2018-11-27T17:59:30.882Z,17.17
2018-11-27T18:01:58.476Z,16.90
2018-11-27T18:04:25.810Z,15.43
2018-11-27T18:06:53.308Z,16.13
2018-11-27T18:09:20.830Z,15.93
2018-11-27T18:11:48.356Z,15.67
2018-11-27T18:14:15.719Z,20.50
2018-11-27T18:16:43.726Z,18.33
2018-11-27T18:19:11.117Z,16.77
2018-11-27T18:21:38.584Z,15.10
2018-11-27T18:24:06.035Z,15.20
2018-11-27T18:26:33.446Z,17.53
2018-11-27T18:29:01.267Z,17.17
2018-11-27T18:31:28.745Z,17.47
2018-11-27T18:33:56.258Z,18.27
2018-11-27T18:36:25.806Z,16.43
2018-11-27T18:38:51.089Z,15.77
2018-11-27T18:41:18.579Z,16.43
2018-11-27T18:43:46.132Z,15.60
2018-11-27T18:46:13.602Z,16.83
2018-11-27T18:48:41.029Z,16.80
2018-11-27T18:51:08.464Z,19.33
2018-11-27T18:53:35.979Z,15.83
2018-11-27T18:56:03.509Z,16.90
2018-11-27T18:58:30.881Z,17.20
2018-11-27T19:00:58.218Z,17.50
2018-11-27T19:03:25.599Z,16.80
2018-11-27T19:05:53.079Z,16.90
2018-11-27T19:08:20.640Z,17.17
2018-11-27T19:10:48.091Z,15.93
2018-11-27T19:13:15.463Z,17.60
2018-11-27T19:15:45.344Z,16.47
2018-11-27T19:18:15.662Z,16.53
2018-11-27T19:20:43.059Z,15.77
2018-11-27T19:23:10.448Z,17.17
2018-11-27T19:25:37.954Z,15.83
2018-11-27T19:28:06.296Z,16.73
2018-11-27T19:30:33.937Z,16.33
2018-11-27T19:33:01.283Z,16.47
2018-11-27T19:35:28.680Z,16.17
2018-11-27T19:37:56.121Z,16.80
2018-11-27T19:40:23.476Z,15.70
2018-11-27T19:42:50.865Z,15.37
2018-11-27T19:45:22.707Z,16.57
2018-11-27T19:47:50.350Z,16.57
2018-11-27T19:50:19.619Z,17.30
2018-11-27T19:52:49.331Z,17.27
2018-11-27T19:55:17.496Z,17.10
2018-11-27T19:57:44.983Z,16.73
2018-11-27T20:00:15.680Z,17.50
2018-11-27T20:02:43.483Z,17.57
2018-11-27T20:05:12.348Z,17.57
2018-11-27T20:07:40.262Z,16.97
2018-11-27T20:10:09.781Z,17.60
2018-11-27T20:12:37.389Z,16.70
2018-11-27T20:15:07.466Z,16.17
2018-11-27T20:17:34.881Z,15.77
2018-11-27T20:20:02.331Z,15.93
2018-11-27T20:22:29.743Z,15.97
2018-11-27T20:24:57.225Z,17.10
2018-11-27T20:27:25.602Z,16.00
2018-11-27T20:29:53.246Z,16.50
2018-11-27T20:32:20.776Z,16.90
2018-11-27T20:34:48.160Z,17.50
2018-11-27T20:37:15.685Z,19.30
2018-11-27T20:39:43.141Z,19.57
2018-11-27T20:42:10.567Z,19.20
2018-11-27T20:44:37.931Z,19.90
2018-11-27T20:47:07.586Z,19.20
2018-11-27T20:49:32.863Z,20.80
2018-11-27T20:52:00.407Z,19.53
2018-11-27T20:54:28.036Z,18.17
2018-11-27T20:56:55.539Z,18.10
2018-11-27T20:59:23.065Z,17.10
2018-11-27T21:01:50.655Z,18.33
2018-11-27T21:04:18.093Z,19.27
2018-11-27T21:06:45.551Z,18.77
2018-11-27T21:09:13.151Z,18.83
2018-11-27T21:11:41.088Z,19.20
2018-11-27T21:14:09.217Z,19.40
2018-11-27T21:16:36.737Z,19.70
2018-11-27T21:19:04.320Z,20.67
2018-11-27T21:21:31.718Z,20.33
2018-11-27T21:23:59.188Z,20.13
2018-11-27T21:26:26.604Z,19.53
2018-11-27T21:28:54.035Z,18.70
2018-11-27T21:31:24.141Z,20.70
2018-11-27T21:33:48.887Z,18.90
2018-11-27T21:36:16.414Z,19.43
2018-11-27T21:38:43.866Z,18.73
2018-11-27T21:41:11.243Z,19.83
2018-11-27T21:43:38.696Z,19.83
2018-11-27T21:46:07.209Z,20.80
2018-11-27T21:48:35.301Z,19.93
2018-11-27T21:51:03.511Z,20.47
2018-11-27T21:53:30.890Z,21.87
2018-11-27T21:55:58.535Z,21.10
2018-11-27T21:58:26.001Z,20.03
2018-11-27T22:00:53.376Z,20.20
2018-11-27T22:03:20.856Z,20.73
2018-11-27T22:05:48.264Z,19.97
2018-11-27T22:08:16.156Z,20.73
2018-11-27T22:10:43.470Z,20.57
2018-11-27T22:13:12.656Z,18.17
2018-11-27T22:15:41.317Z,20.00
2018-11-27T22:18:09.877Z,19.23
2018-11-27T22:20:37.320Z,19.43
2018-11-27T22:23:05.534Z,19.33
2018-11-27T22:25:32.939Z,20.50
2018-11-27T22:28:00.358Z,18.93
2018-11-27T22:30:27.744Z,20.10
2018-11-27T22:32:55.586Z,19.60
2018-11-27T22:35:22.998Z,19.40
2018-11-27T22:37:50.425Z,19.17
2018-11-27T22:40:19.440Z,20.57
2018-11-27T22:42:47.415Z,19.97
2018-11-27T22:45:31.538Z,18.00
2018-11-27T22:47:58.977Z,19.87
2018-11-27T22:50:26.457Z,20.00
2018-11-27T22:52:53.871Z,20.23
2018-11-27T22:55:21.488Z,19.40
2018-11-27T22:57:48.919Z,19.63
2018-11-27T23:00:21.693Z,19.03
2018-11-27T23:02:49.244Z,20.70
2018-11-27T23:05:17.443Z,20.57
2018-11-27T23:07:44.882Z,21.07
2018-11-27T23:10:13.087Z,19.77
2018-11-27T23:12:40.525Z,19.03
2018-11-27T23:15:10.533Z,19.90
2018-11-27T23:17:37.952Z,20.63
2018-11-27T23:20:07.932Z,19.70
2018-11-27T23:22:35.272Z,19.63
2018-11-27T23:25:02.778Z,20.47
2018-11-27T23:27:30.320Z,18.57
2018-11-27T23:29:57.664Z,19.77
2018-11-27T23:32:25.122Z,19.90
2018-11-27T23:34:53.119Z,20.37
2018-11-27T23:37:20.544Z,20.33
2018-11-27T23:39:47.998Z,19.63
2018-11-27T23:42:15.532Z,19.97
2018-11-27T23:44:43.386Z,19.20
2018-11-27T23:47:10.790Z,20.17
2018-11-27T23:49:38.632Z,19.97
2018-11-27T23:52:06.034Z,20.23
2018-11-27T23:54:33.363Z,19.10
2018-11-27T23:57:00.810Z,20.60
2018-11-27T23:59:28.215Z,21.33
